Portada
METAR-TAF:

METAR-TAF

Aeropuertos :

Aeropuerto Internacional de Yap

Yap, Micronesia

latitud: 09-29N, longitud: 138-05E, altitud: 28 m

Observación

El informe se hizo hace 39 minutos, a las 02:50 UTC
Viento 9 kt del norte-noroeste
Temperatura 31°C
Humedad 75%
Presión 1007 hPa
Visibilidad: 19.3 km
Nubes dispersas a una altura de 1600 ft, Cumulus congestus.
Cielo nuboso a una altura de 30000 ft

METAR: PTYA 220250Z 33009KT 12SM SCT016TCU BKN300 31/26 A2975 RMK TCU NE AND SE SLP074 8/201 T03130260 57019

Hora: 13:29 (03:29 UTC)

Pronóstico

El informe se hizo hace 4 horas y 9 minutos, a las 23:20 UTC
Pronóstico válido del 22 a las 00 UTC al 22 a las 24 UTC
Viento 7 kt del norte
Visibilidad: 10 km
Nubes dispersas a una altura de 1600 ft
Cielo nuboso a una altura de 30000 ft
chaparrones en las proximidades

TAF: PTYA 212320Z 2200/2224 36007KT P6SM VCSH SCT016 BKN300

Observaciones y pronósticos meteorológicos de más de 4000 aeropuertos (mensajes METAR y TAF).

Los puntos amarillos y rojos representan las estaciones disponibles.

Ponga el ratón en el punto deseado para ver el nombre de la estación.

Haga clic para ver las observaciones y los pronósticos meteorológicos.

Para cambiar el mapa : haga clic en los botones verdes con una cruz de color negro para hacer un zoom, en el botón verde con un guión para alejar o en las flechas verdes para mapas adyacentes.


METAR-TAF: